Главная страница
METAR-TAF:

METAR-TAF

Аэропорты :

Киркенес, Норвегия

широта: 69-44N, долгота: 029-54E, высота над уровнем моря: 9 м

Текущие метеонаблюдения

Эта сводка был подготовлена 18 минут назад, в 20:20 UTC
Ветер 6 Узел от восточно-северо-восточный
Температура 6°C
Влажность 81%
Давление 1017 hPa
Видимость 10 км и более
Отдельные облака на высоте 1100 фута

METAR: ENKR 132020Z 06006KT 9999 SCT011 06/03 Q1017 RMK WIND 731FT 06008KT

Время: 22:38 (20:38 UTC)

Прогноз

Эта сводка был подготовлена 3 часа и 38 минут назад, в 17:00 UTC
Прогноз действительный с 13-го 18 UTC до 14-го 03 UTC
Ветер 5 Узел от восточно-северо-восточный
Видимость 10 км и более
Отдельные облака на высоте 2000 фута

TAF: ENKR 131700Z 1318/1403 06005KT 9999 SCT020

Метеонаблюдения и прогнозы для более 4000 аэропортов (сводки METAR и TAF).

Имеющиеся станции представлены на карте желтыми и красными точками.

Чтобы увидеть название станции, наведите на нее мышь.

Затем щелкните, чтобы увидеть метеонаблюдения и метеопрогнозы.

Управление картой: чтобы увеличить масштаб, щелкните зеленые кнопки с черным крестиком; чтобы уменьшить масштаб, щелкните зеленую кнопку с тире; для просмотра соседних карт щелкайте зеленые стрелки.


METAR-TAF: